Whale Watcher II — WDB8211 — position and weather

sailwx.info

Track history (hours):
 
Tides and Currents Weather Stations Pressure Air Temp Water Temp Dewpoint Dewpoint Depression Visibility Wind Speed Wind Dir Waves Ship Positions

Whale Watcher II

Owner: Ronald L. Robbins LLC, Cape May, NJ. More information available from US FCC via Universal Licensing System and Coast Guard Vessel Documentation Center.

Last reported at 2015-Sep-05 09:22 UTC. Time now 2015-Sep-05 12:17 UTC.
Position N 29°55' W 090°04'.

Length 22 m.

Type: Towing. MMSI: 367011790.

Date/timePositionNaut miles runAvg speedWind from/ knotsBaromVisibWave heightAir tempDewpointWater temp
2015-Sep-05 09:22N 29°55' W 090°04'0 0.0
2015-Sep-05 08:26N 29°55' W 090°04'0 0.0
2015-Sep-05 07:31N 29°55' W 090°04'0 0.0
2015-Sep-05 06:33N 29°55' W 090°04'0 0.0
2015-Sep-05 05:21N 29°55' W 090°04'0 0.0
2015-Sep-05 04:33N 29°55' W 090°04'0 0.0
2015-Sep-05 03:24N 29°55' W 090°04'0 0.0
2015-Sep-05 02:33N 29°55' W 090°04'0 0.0
2015-Sep-05 01:33N 29°55' W 090°04'0 0.1
2015-Sep-05 00:33N 29°55' W 090°04'0 0.0
2015-Sep-04 23:31N 29°55' W 090°04'0 0.0
2015-Sep-04 22:33N 29°55' W 090°04'0 0.2
2015-Sep-04 21:33N 29°55' W 090°04'0 0.0
2015-Sep-04 20:33N 29°55' W 090°04'0 0.0
2015-Sep-04 19:30N 29°55' W 090°04'0 0.0
2015-Sep-04 18:31N 29°55' W 090°04'0 0.0
2015-Sep-04 17:32N 29°55' W 090°04'0 0.0
2015-Sep-04 16:29N 29°55' W 090°04'0 0.0
2015-Sep-04 05:32N 29°55' W 090°04'  
2015-Sep-01 23:23N 29°57' W 090°02'3 2.2
2015-Sep-01 22:15N 29°55' W 090°04'0 0.0
2015-Sep-01 21:33N 29°55' W 090°04'0 0.0
2015-Sep-01 20:32N 29°55' W 090°04'0 0.0
2015-Sep-01 19:29N 29°55' W 090°04'0 0.0
2015-Sep-01 18:31N 29°55' W 090°04'2 2.4
2015-Sep-01 17:31N 29°57' W 090°02'3 0.3
2015-Sep-01 07:14N 29°56' W 089°59'2 0.1
2015-Aug-30 22:10N 29°55' W 089°57'5 8.3
2015-Aug-30 21:33N 29°57' W 090°02'2 2.3
2015-Aug-30 20:31N 29°55' W 090°04'0 0.0
2015-Aug-30 19:31N 29°55' W 090°04'0 0.1
2015-Aug-30 18:29N 29°55' W 090°04'1 1.1
2015-Aug-30 17:26N 29°55' W 090°05'0 0.0
2015-Aug-30 16:32N 29°55' W 090°05'3 0.2
2015-Aug-29 21:29N 29°58' W 090°03'2 0.4
2015-Aug-29 16:21N 29°56' W 090°04'1 1.5
2015-Aug-29 15:33N 29°55' W 090°05'1 0.5
2015-Aug-29 14:33N 29°55' W 090°04'  
2015-Aug-27 07:13N 29°56' W 090°22'0 0.0
2015-Aug-27 06:33N 29°56' W 090°22'16 2.6
2015-Aug-27 00:22N 29°56' W 090°04'0 0.1
2015-Aug-26 23:22N 29°55' W 090°04'0 0.0
2015-Aug-26 22:04N 29°55' W 090°04'0 0.1
2015-Aug-26 21:33N 29°55' W 090°04'0 0.0
2015-Aug-26 20:32N 29°55' W 090°04'3 2.8
2015-Aug-26 19:32N 29°57' W 090°01'  
Track history (hours):
 
Tides and Currents Weather Stations Pressure Air Temp Water Temp Dewpoint Dewpoint Depression Visibility Wind Speed Wind Dir Waves Ship Positions

Whale Watcher II

Owner: Ronald L. Robbins LLC, Cape May, NJ. More information available from US FCC via Universal Licensing System and Coast Guard Vessel Documentation Center.

Last reported at 2015-Sep-05 09:22 UTC. Time now 2015-Sep-05 12:17 UTC.
Position N 29°55' W 090°04'.

Length 22 m.

Type: Towing. MMSI: 367011790.

Date/timePositionNaut miles runAvg speedWind from/ knotsBaromVisibWave heightAir tempDewpointWater temp
2015-Sep-05 09:22N 29°55' W 090°04'0 0.0
2015-Sep-05 08:26N 29°55' W 090°04'0 0.0
2015-Sep-05 07:31N 29°55' W 090°04'0 0.0
2015-Sep-05 06:33N 29°55' W 090°04'0 0.0
2015-Sep-05 05:21N 29°55' W 090°04'0 0.0
2015-Sep-05 04:33N 29°55' W 090°04'0 0.0
2015-Sep-05 03:24N 29°55' W 090°04'0 0.0
2015-Sep-05 02:33N 29°55' W 090°04'0 0.0
2015-Sep-05 01:33N 29°55' W 090°04'0 0.1
2015-Sep-05 00:33N 29°55' W 090°04'0 0.0
2015-Sep-04 23:31N 29°55' W 090°04'0 0.0
2015-Sep-04 22:33N 29°55' W 090°04'0 0.2
2015-Sep-04 21:33N 29°55' W 090°04'0 0.0
2015-Sep-04 20:33N 29°55' W 090°04'0 0.0
2015-Sep-04 19:30N 29°55' W 090°04'0 0.0
2015-Sep-04 18:31N 29°55' W 090°04'0 0.0
2015-Sep-04 17:32N 29°55' W 090°04'0 0.0
2015-Sep-04 16:29N 29°55' W 090°04'0 0.0
2015-Sep-04 05:32N 29°55' W 090°04'  
2015-Sep-01 23:23N 29°57' W 090°02'3 2.2
2015-Sep-01 22:15N 29°55' W 090°04'0 0.0
2015-Sep-01 21:33N 29°55' W 090°04'0 0.0
2015-Sep-01 20:32N 29°55' W 090°04'0 0.0
2015-Sep-01 19:29N 29°55' W 090°04'0 0.0
2015-Sep-01 18:31N 29°55' W 090°04'2 2.4
2015-Sep-01 17:31N 29°57' W 090°02'3 0.3
2015-Sep-01 07:14N 29°56' W 089°59'2 0.1
2015-Aug-30 22:10N 29°55' W 089°57'5 8.3
2015-Aug-30 21:33N 29°57' W 090°02'2 2.3
2015-Aug-30 20:31N 29°55' W 090°04'0 0.0
2015-Aug-30 19:31N 29°55' W 090°04'0 0.1
2015-Aug-30 18:29N 29°55' W 090°04'1 1.1
2015-Aug-30 17:26N 29°55' W 090°05'0 0.0
2015-Aug-30 16:32N 29°55' W 090°05'3 0.2
2015-Aug-29 21:29N 29°58' W 090°03'2 0.4
2015-Aug-29 16:21N 29°56' W 090°04'1 1.5
2015-Aug-29 15:33N 29°55' W 090°05'1 0.5
2015-Aug-29 14:33N 29°55' W 090°04'  
2015-Aug-27 07:13N 29°56' W 090°22'0 0.0
2015-Aug-27 06:33N 29°56' W 090°22'16 2.6
2015-Aug-27 00:22N 29°56' W 090°04'0 0.1
2015-Aug-26 23:22N 29°55' W 090°04'0 0.0
2015-Aug-26 22:04N 29°55' W 090°04'0 0.1
2015-Aug-26 21:33N 29°55' W 090°04'0 0.0
2015-Aug-26 20:32N 29°55' W 090°04'3 2.8
2015-Aug-26 19:32N 29°57' W 090°01'  

Dump ship's entire track history